Aviation Digital Data Service (ADDS)

Output produced by TAFs form (0716 UTC 22 August 2017)
found at http://aviationweather.gov/adds/tafs/
 
KDRO 220529Z 2206/2306 35004KT P6SM -RA BKN090 OVC100 
     FM220700 01004KT P6SM VCSH BKN100 OVC200 
     FM221400 VRB03KT P6SM SCT110 BKN200 
     FM222000 15006KT P6SM VCTS SCT110CB BKN200 
     FM230200 04005KT P6SM SCT100 BKN200